createdAt,value
2023-02-25T00:00:56.569Z,91.23
2023-02-25T00:03:26.448Z,90.83
2023-02-25T00:05:56.662Z,90.53
2023-02-25T00:08:27.813Z,90.51
2023-02-25T00:11:02.146Z,92.07
2023-02-25T00:13:32.603Z,91.10
2023-02-25T00:16:07.671Z,92.44
2023-02-25T00:18:41.270Z,92.52
2023-02-25T00:21:21.131Z,92.26
2023-02-25T00:24:17.059Z,92.04
2023-02-25T00:26:48.139Z,91.85
2023-02-25T00:29:18.852Z,91.89
2023-02-25T00:31:49.045Z,91.79
2023-02-25T00:34:19.535Z,90.89
2023-02-25T00:36:50.700Z,91.65
2023-02-25T00:39:20.733Z,90.83
2023-02-25T00:41:50.673Z,92.69
2023-02-25T00:44:21.880Z,93.38
2023-02-25T00:46:51.078Z,93.70
2023-02-25T00:49:32.152Z,93.18
2023-02-25T00:52:07.171Z,94.21
2023-02-25T00:54:40.101Z,93.30
2023-02-25T00:57:10.128Z,95.08
2023-02-25T00:59:39.666Z,93.93
2023-02-25T01:02:15.815Z,94.05
2023-02-25T01:04:46.206Z,93.78
2023-02-25T01:07:17.282Z,93.87
2023-02-25T01:09:46.873Z,93.65
2023-02-25T01:12:17.299Z,94.07
2023-02-25T01:14:46.812Z,93.39
2023-02-25T01:17:16.847Z,93.18
2023-02-25T01:19:46.823Z,93.36
2023-02-25T01:22:17.929Z,93.14
2023-02-25T01:24:48.566Z,93.13
2023-02-25T01:27:19.647Z,93.05
2023-02-25T01:29:50.501Z,92.70
2023-02-25T01:32:20.901Z,93.19
2023-02-25T01:34:51.082Z,93.21
2023-02-25T01:37:20.843Z,92.70
2023-02-25T01:39:54.284Z,93.07
2023-02-25T01:42:24.560Z,93.14
2023-02-25T01:45:24.828Z,93.74
2023-02-25T01:48:02.194Z,92.51
2023-02-25T01:50:41.422Z,92.53
2023-02-25T01:53:12.676Z,93.00
2023-02-25T01:55:44.116Z,92.71
2023-02-25T01:58:14.984Z,92.41
2023-02-25T02:00:48.562Z,92.30
2023-02-25T02:03:19.236Z,91.72
2023-02-25T02:06:17.391Z,92.49
2023-02-25T02:08:48.908Z,93.11
2023-02-25T02:11:19.836Z,93.67
2023-02-25T02:13:57.667Z,94.22
2023-02-25T02:16:51.045Z,93.47
2023-02-25T02:19:38.879Z,93.73
2023-02-25T02:22:32.775Z,94.93
2023-02-25T02:25:18.183Z,94.64
2023-02-25T02:27:58.115Z,95.04
2023-02-25T02:30:51.787Z,96.01
2023-02-25T02:33:55.569Z,95.52
2023-02-25T02:37:08.415Z,96.55
2023-02-25T02:40:12.388Z,95.18
2023-02-25T02:43:00.205Z,94.86
2023-02-25T02:45:45.597Z,95.07
2023-02-25T02:48:38.154Z,96.32
2023-02-25T02:51:18.082Z,97.83
2023-02-25T02:53:54.151Z,98.16
2023-02-25T02:56:27.329Z,97.21
2023-02-25T02:59:11.000Z,96.42
2023-02-25T03:01:54.842Z,96.26
2023-02-25T03:04:29.828Z,97.71
2023-02-25T03:07:05.298Z,97.96
2023-02-25T03:09:46.559Z,97.52
2023-02-25T03:12:18.167Z,96.92
2023-02-25T03:15:00.459Z,96.67
2023-02-25T03:17:36.726Z,96.56
2023-02-25T03:20:19.648Z,96.60
2023-02-25T03:22:56.831Z,96.75
2023-02-25T03:25:32.489Z,96.28
2023-02-25T03:28:17.673Z,97.27
2023-02-25T03:31:08.627Z,96.97
2023-02-25T03:33:50.387Z,97.15
2023-02-25T03:36:32.066Z,96.53
2023-02-25T03:39:10.987Z,97.82
2023-02-25T03:41:46.496Z,97.30
2023-02-25T03:44:24.018Z,97.52
2023-02-25T03:46:55.859Z,96.58
2023-02-25T03:49:33.500Z,96.49
2023-02-25T03:52:07.760Z,96.97
2023-02-25T03:54:38.383Z,97.52
2023-02-25T03:57:08.614Z,96.25
2023-02-25T03:59:39.142Z,95.87
2023-02-25T04:02:14.683Z,95.76
2023-02-25T04:04:44.030Z,96.05
2023-02-25T04:07:22.314Z,96.04
2023-02-25T04:09:53.510Z,96.70
2023-02-25T04:12:24.855Z,96.96
2023-02-25T04:14:57.101Z,96.09
2023-02-25T04:17:28.673Z,97.08
2023-02-25T04:20:00.759Z,97.43
2023-02-25T04:22:31.970Z,97.88
2023-02-25T04:25:05.192Z,99.30
2023-02-25T04:27:34.228Z,98.22
2023-02-25T04:30:05.664Z,98.12
2023-02-25T04:32:35.451Z,98.54
2023-02-25T04:35:07.152Z,97.33
2023-02-25T04:37:40.760Z,96.84
2023-02-25T04:40:17.452Z,96.55
2023-02-25T04:42:47.732Z,96.72
2023-02-25T04:45:18.410Z,97.41
2023-02-25T04:47:48.176Z,96.68
2023-02-25T04:50:19.020Z,96.28
2023-02-25T04:52:48.804Z,96.61
2023-02-25T04:55:18.910Z,97.25
2023-02-25T04:57:48.599Z,98.79
2023-02-25T05:00:21.771Z,97.95
2023-02-25T05:02:51.808Z,98.34
2023-02-25T05:05:22.014Z,99.18
2023-02-25T05:07:51.526Z,98.40
2023-02-25T05:10:21.018Z,98.58
2023-02-25T05:12:50.984Z,98.22
2023-02-25T05:15:20.802Z,97.81
2023-02-25T05:17:51.545Z,97.09
2023-02-25T05:20:21.616Z,97.51
2023-02-25T05:22:51.792Z,98.25
2023-02-25T05:25:21.093Z,97.46
2023-02-25T05:27:51.439Z,97.42
2023-02-25T05:30:20.817Z,97.49
2023-02-25T05:32:50.282Z,97.51
2023-02-25T05:35:20.615Z,98.00
2023-02-25T05:37:51.515Z,97.91
2023-02-25T05:40:21.223Z,96.73
2023-02-25T05:42:53.236Z,96.81
2023-02-25T05:45:23.845Z,97.02
2023-02-25T05:47:53.462Z,96.69
2023-02-25T05:50:22.877Z,96.86
2023-02-25T05:52:53.317Z,96.18
2023-02-25T05:55:22.798Z,96.35
2023-02-25T05:57:53.242Z,96.97
2023-02-25T06:00:23.322Z,97.78
2023-02-25T06:02:52.404Z,97.70
2023-02-25T06:05:22.552Z,97.77
2023-02-25T06:07:51.876Z,97.20
2023-02-25T06:10:22.737Z,98.47
2023-02-25T06:12:53.532Z,97.44
2023-02-25T06:15:23.728Z,96.71
2023-02-25T06:17:53.600Z,98.12
2023-02-25T06:20:25.766Z,98.09
2023-02-25T06:22:56.332Z,99.21
2023-02-25T06:25:30.665Z,98.83
2023-02-25T06:28:01.845Z,98.51
2023-02-25T06:30:32.293Z,99.73
2023-02-25T06:33:07.670Z,99.59
2023-02-25T06:35:40.489Z,99.58
2023-02-25T06:38:11.085Z,99.46
2023-02-25T06:40:40.051Z,98.71
2023-02-25T06:43:10.778Z,98.38
2023-02-25T06:45:41.455Z,97.95
2023-02-25T06:48:11.511Z,97.96
2023-02-25T06:50:43.215Z,97.74
2023-02-25T06:53:13.314Z,98.15
2023-02-25T06:55:42.826Z,98.31
2023-02-25T06:58:15.414Z,98.78
2023-02-25T07:00:46.585Z,98.29
2023-02-25T07:03:18.353Z,98.16
2023-02-25T07:05:49.202Z,99.11
2023-02-25T07:08:18.630Z,99.54
2023-02-25T07:10:50.054Z,99.04
2023-02-25T07:13:20.735Z,98.87
2023-02-25T07:15:51.551Z,99.21
2023-02-25T07:18:22.280Z,98.64
2023-02-25T07:20:53.413Z,98.43
2023-02-25T07:23:22.691Z,98.45
2023-02-25T07:25:52.774Z,97.64
2023-02-25T07:28:25.089Z,98.32
2023-02-25T07:30:56.617Z,99.10
2023-02-25T07:33:25.934Z,98.92
2023-02-25T07:35:55.848Z,98.99
2023-02-25T07:38:26.702Z,99.10
2023-02-25T07:41:12.720Z,99.03
2023-02-25T07:43:43.059Z,99.16
2023-02-25T07:46:13.890Z,99.36
2023-02-25T07:48:44.179Z,98.93
2023-02-25T07:51:18.574Z,98.79
2023-02-25T07:53:50.017Z,98.90
2023-02-25T07:56:22.610Z,98.93
2023-02-25T07:58:53.260Z,98.73
2023-02-25T08:01:27.812Z,98.63
2023-02-25T08:04:00.889Z,98.36
2023-02-25T08:06:31.194Z,98.04
2023-02-25T08:09:00.916Z,97.85
2023-02-25T08:11:36.253Z,97.65
2023-02-25T08:14:06.220Z,97.16
2023-02-25T08:16:39.094Z,95.96
2023-02-25T08:19:10.512Z,95.68
2023-02-25T08:21:41.124Z,95.66
2023-02-25T08:24:10.757Z,95.37
2023-02-25T08:26:39.814Z,94.93
2023-02-25T08:29:09.842Z,95.43
2023-02-25T08:31:40.145Z,94.91
2023-02-25T08:34:11.348Z,94.78
2023-02-25T08:36:41.932Z,95.04
2023-02-25T08:39:14.928Z,94.69
2023-02-25T08:41:45.376Z,93.46
2023-02-25T08:44:15.456Z,94.36
2023-02-25T08:46:46.377Z,94.40
2023-02-25T08:49:16.822Z,94.54
2023-02-25T08:51:51.141Z,93.98
2023-02-25T08:54:24.481Z,93.48
2023-02-25T08:56:56.012Z,92.85
2023-02-25T08:59:25.678Z,92.78
2023-02-25T09:01:57.010Z,89.77
2023-02-25T09:04:27.028Z,89.31
2023-02-25T09:06:59.271Z,89.42
2023-02-25T09:09:31.772Z,88.33
2023-02-25T09:12:05.465Z,87.36
2023-02-25T09:14:35.672Z,83.84
2023-02-25T09:17:08.705Z,82.14
2023-02-25T09:19:39.423Z,77.83
2023-02-25T09:22:10.594Z,79.85
2023-02-25T09:24:40.490Z,77.87
2023-02-25T09:27:11.226Z,72.53
2023-02-25T09:29:42.148Z,68.51
2023-02-25T09:32:20.548Z,69.80
2023-02-25T09:34:50.253Z,66.87
2023-02-25T09:37:22.949Z,65.94
2023-02-25T09:39:52.812Z,64.41
2023-02-25T09:42:40.592Z,61.82
2023-02-25T09:45:24.046Z,59.31
2023-02-25T09:48:02.141Z,58.69
2023-02-25T09:50:41.612Z,58.16
2023-02-25T09:53:37.482Z,59.75
2023-02-25T09:56:09.800Z,59.80
2023-02-25T09:58:50.340Z,58.25
2023-02-25T10:01:39.425Z,58.99
2023-02-25T10:04:45.231Z,57.81
2023-02-25T10:07:29.110Z,56.16
2023-02-25T10:10:42.730Z,54.86
2023-02-25T10:13:40.354Z,53.46
2023-02-25T10:16:34.811Z,53.51
2023-02-25T10:19:46.215Z,54.41
2023-02-25T10:22:57.096Z,53.43
2023-02-25T10:25:32.978Z,55.40
2023-02-25T10:28:11.931Z,55.05
2023-02-25T10:30:58.600Z,55.25
2023-02-25T10:33:37.459Z,55.70
2023-02-25T10:36:17.287Z,56.25
2023-02-25T10:38:53.399Z,56.02
2023-02-25T10:41:27.389Z,55.67
2023-02-25T10:43:58.708Z,56.60
2023-02-25T10:46:46.998Z,57.99
2023-02-25T10:49:26.344Z,59.21
2023-02-25T10:52:03.458Z,60.93
2023-02-25T10:54:55.738Z,63.08
2023-02-25T10:57:43.490Z,65.52
2023-02-25T11:00:35.088Z,67.52
2023-02-25T11:03:05.742Z,69.08
2023-02-25T11:05:45.373Z,70.21
2023-02-25T11:08:37.370Z,71.86
2023-02-25T11:11:17.100Z,72.62
2023-02-25T11:14:15.679Z,73.86
2023-02-25T11:16:48.935Z,74.92
2023-02-25T11:19:32.524Z,74.81
2023-02-25T11:22:36.510Z,75.16
2023-02-25T11:25:23.228Z,75.95
2023-02-25T11:27:59.915Z,76.25
2023-02-25T11:30:38.235Z,76.15
2023-02-25T11:36:37.822Z,76.48
2023-02-25T11:39:22.550Z,76.51
2023-02-25T11:42:27.507Z,75.92
2023-02-25T11:45:06.540Z,75.59
2023-02-25T11:48:21.211Z,76.78
2023-02-25T11:51:19.010Z,77.72
2023-02-25T11:54:07.032Z,78.59
2023-02-25T11:56:41.120Z,79.37
2023-02-25T11:59:21.478Z,80.50
2023-02-25T12:02:21.184Z,80.85
2023-02-25T12:05:20.505Z,81.70
2023-02-25T12:08:18.483Z,82.05
2023-02-25T12:11:41.857Z,81.40
2023-02-25T12:14:25.617Z,80.87
2023-02-25T12:17:19.942Z,81.40
2023-02-25T12:20:20.971Z,82.42
2023-02-25T12:23:32.686Z,82.29
2023-02-25T12:26:22.387Z,81.87
2023-02-25T12:29:09.522Z,81.99
2023-02-25T12:32:13.795Z,82.60
2023-02-25T12:35:16.077Z,82.52
2023-02-25T12:38:22.607Z,82.55
2023-02-25T12:41:33.964Z,82.40
2023-02-25T12:44:07.323Z,82.43
2023-02-25T12:47:13.070Z,81.91
2023-02-25T12:50:19.271Z,81.14
2023-02-25T12:52:48.637Z,81.36
2023-02-25T12:55:53.491Z,82.06
2023-02-25T12:58:37.332Z,81.07
2023-02-25T13:01:24.015Z,81.20
2023-02-25T13:04:12.685Z,81.59
2023-02-25T13:07:06.561Z,81.37
2023-02-25T13:10:05.446Z,82.38
2023-02-25T13:13:03.759Z,82.39
2023-02-25T13:16:12.111Z,82.30
2023-02-25T13:19:06.796Z,82.79
2023-02-25T13:22:00.685Z,82.44
2023-02-25T13:24:52.472Z,81.72
2023-02-25T13:28:12.517Z,82.27
2023-02-25T13:31:23.159Z,83.05
2023-02-25T13:34:17.415Z,83.43
2023-02-25T13:37:20.467Z,83.99
2023-02-25T13:40:21.473Z,83.96
2023-02-25T13:43:04.001Z,83.91
2023-02-25T13:46:07.814Z,83.86
2023-02-25T13:49:25.485Z,83.45
2023-02-25T13:52:24.500Z,82.84
2023-02-25T13:55:12.045Z,81.51
2023-02-25T13:58:44.123Z,80.91
2023-02-25T14:01:46.055Z,80.26
2023-02-25T14:04:17.826Z,80.25
2023-02-25T14:07:18.810Z,77.73
2023-02-25T14:10:24.552Z,73.34
2023-02-25T14:13:40.035Z,71.51
2023-02-25T14:16:45.977Z,72.34
2023-02-25T14:19:32.724Z,73.47
2023-02-25T14:22:21.645Z,74.31
2023-02-25T14:25:17.935Z,75.01
2023-02-25T14:27:56.326Z,74.38
2023-02-25T14:30:45.982Z,74.42
2023-02-25T14:33:42.030Z,74.20
2023-02-25T14:36:39.956Z,75.07
2023-02-25T14:39:43.299Z,74.93
2023-02-25T14:42:46.207Z,73.23
2023-02-25T14:45:25.525Z,73.56
2023-02-25T14:48:03.261Z,74.75
2023-02-25T14:51:10.892Z,74.81
2023-02-25T14:54:08.194Z,74.94
2023-02-25T14:56:53.452Z,74.36
2023-02-25T15:00:00.312Z,74.78
2023-02-25T15:02:55.769Z,75.32
2023-02-25T15:05:44.722Z,75.28
2023-02-25T15:08:45.133Z,75.86
2023-02-25T15:11:44.331Z,76.48
2023-02-25T15:14:39.573Z,76.45
2023-02-25T15:17:47.625Z,76.21
2023-02-25T15:20:31.865Z,75.76
2023-02-25T15:23:20.370Z,76.31
2023-02-25T15:26:39.865Z,76.89
2023-02-25T15:29:35.412Z,76.88
2023-02-25T15:32:31.435Z,76.72
2023-02-25T15:35:05.573Z,77.96
2023-02-25T15:37:38.121Z,76.94
2023-02-25T15:40:22.238Z,76.20
2023-02-25T15:43:16.944Z,76.01
2023-02-25T15:45:51.675Z,75.50
2023-02-25T15:48:32.245Z,74.87
2023-02-25T15:51:34.514Z,74.88
2023-02-25T15:54:04.923Z,75.08
2023-02-25T15:56:52.727Z,74.25
2023-02-25T15:59:41.741Z,73.76
2023-02-25T16:02:29.942Z,73.47
2023-02-25T16:08:23.566Z,68.14
2023-02-25T16:11:11.840Z,65.67
2023-02-25T16:14:37.676Z,62.62
2023-02-25T16:17:28.033Z,62.04
2023-02-25T16:20:47.506Z,59.80
2023-02-25T16:23:19.692Z,60.11
2023-02-25T16:26:00.665Z,61.10
2023-02-25T16:28:40.244Z,59.75
2023-02-25T16:31:34.895Z,61.78
2023-02-25T16:34:23.510Z,62.13
2023-02-25T16:37:17.705Z,61.52
2023-02-25T16:39:48.247Z,63.61
2023-02-25T16:42:20.955Z,64.27
2023-02-25T16:45:45.644Z,64.96
2023-02-25T16:48:25.038Z,66.09
2023-02-25T16:50:56.245Z,66.77
2023-02-25T16:53:27.969Z,66.96
2023-02-25T16:56:01.260Z,67.54
2023-02-25T16:58:31.588Z,68.50
2023-02-25T17:01:04.299Z,68.11
2023-02-25T17:03:47.327Z,68.55
2023-02-25T17:06:19.891Z,68.36
2023-02-25T17:08:52.554Z,68.49
2023-02-25T17:11:24.582Z,68.55
2023-02-25T17:13:58.629Z,68.01
2023-02-25T17:16:32.581Z,68.85
2023-02-25T17:19:05.540Z,69.29
2023-02-25T17:21:44.433Z,70.54
2023-02-25T17:24:18.877Z,68.59
2023-02-25T17:26:52.235Z,68.00
2023-02-25T17:29:22.477Z,69.02
2023-02-25T17:31:56.616Z,69.61
2023-02-25T17:34:33.461Z,69.47
2023-02-25T17:37:09.900Z,70.08
2023-02-25T17:39:41.233Z,69.70
2023-02-25T17:42:36.198Z,70.65
2023-02-25T17:45:31.629Z,70.52
2023-02-25T17:48:10.710Z,72.20
2023-02-25T17:50:40.837Z,72.07
2023-02-25T17:53:47.547Z,72.18
2023-02-25T17:56:26.087Z,72.03
2023-02-25T17:59:27.875Z,72.26
2023-02-25T18:02:00.827Z,72.34
2023-02-25T18:04:38.656Z,72.42
2023-02-25T18:07:30.448Z,72.97
2023-02-25T18:10:01.612Z,73.57
2023-02-25T18:12:39.755Z,73.78
2023-02-25T18:15:19.722Z,73.55
2023-02-25T18:17:54.699Z,73.69
2023-02-25T18:20:33.489Z,74.24
2023-02-25T18:23:04.195Z,73.83
2023-02-25T18:25:37.440Z,73.41
2023-02-25T18:28:19.071Z,73.53
2023-02-25T18:30:50.568Z,73.02
2023-02-25T18:33:19.851Z,72.78
2023-02-25T18:35:50.414Z,72.56
2023-02-25T18:38:24.031Z,72.71
2023-02-25T18:40:56.666Z,73.31
2023-02-25T18:43:30.982Z,73.05
2023-02-25T18:46:02.634Z,72.84
2023-02-25T18:48:35.739Z,72.52
2023-02-25T18:51:14.754Z,72.71
2023-02-25T18:53:44.604Z,73.45
2023-02-25T18:56:18.235Z,73.89
2023-02-25T18:58:49.668Z,73.80
2023-02-25T19:01:26.101Z,74.71
2023-02-25T19:04:12.976Z,73.78
2023-02-25T19:06:47.836Z,73.44
2023-02-25T19:09:26.568Z,73.22
2023-02-25T19:12:15.934Z,73.75
2023-02-25T19:14:50.068Z,75.57
2023-02-25T19:17:19.758Z,74.73
2023-02-25T19:19:49.849Z,74.74
2023-02-25T19:22:20.279Z,74.59
2023-02-25T19:24:50.467Z,75.77
2023-02-25T19:27:26.101Z,76.21
2023-02-25T19:29:59.075Z,75.97
2023-02-25T19:32:28.466Z,75.22
2023-02-25T19:34:59.290Z,74.95
2023-02-25T19:37:37.165Z,74.65
2023-02-25T19:40:10.646Z,74.43
2023-02-25T19:42:42.432Z,74.31
2023-02-25T19:45:16.278Z,74.84
2023-02-25T19:47:48.000Z,75.42
2023-02-25T19:50:20.732Z,75.81
2023-02-25T19:52:51.730Z,76.50
2023-02-25T19:55:23.174Z,77.44
2023-02-25T19:57:55.911Z,77.74
2023-02-25T20:00:27.018Z,77.22
2023-02-25T20:02:57.380Z,77.13
2023-02-25T20:05:29.475Z,77.18
2023-02-25T20:08:01.247Z,76.70
2023-02-25T20:10:30.899Z,76.88
2023-02-25T20:13:00.530Z,77.21
2023-02-25T20:15:29.654Z,77.29
2023-02-25T20:17:59.551Z,77.17
2023-02-25T20:20:29.785Z,77.15
2023-02-25T20:22:59.122Z,77.30
2023-02-25T20:25:29.194Z,77.57
2023-02-25T20:27:59.185Z,77.23
2023-02-25T20:30:29.724Z,77.34
2023-02-25T20:33:01.787Z,77.58
2023-02-25T20:35:32.265Z,77.61
2023-02-25T20:38:27.632Z,77.38
2023-02-25T20:40:58.727Z,77.45
2023-02-25T20:43:28.069Z,76.78
2023-02-25T20:45:57.695Z,77.23
2023-02-25T20:48:32.140Z,77.89
2023-02-25T20:51:02.715Z,77.64
2023-02-25T20:53:32.760Z,78.73
2023-02-25T20:56:02.637Z,78.23
2023-02-25T20:58:36.876Z,77.57
2023-02-25T21:01:07.900Z,78.42
2023-02-25T21:03:37.780Z,78.69
2023-02-25T21:06:08.401Z,79.49
2023-02-25T21:08:38.644Z,78.97
2023-02-25T21:11:08.913Z,78.14
2023-02-25T21:13:38.981Z,77.52
2023-02-25T21:16:09.099Z,77.43
2023-02-25T21:18:38.983Z,77.17
2023-02-25T21:21:11.139Z,77.02
2023-02-25T21:23:42.395Z,77.42
2023-02-25T21:26:12.561Z,78.11
2023-02-25T21:28:42.634Z,78.74
2023-02-25T21:31:14.644Z,78.40
2023-02-25T21:33:44.520Z,78.31
2023-02-25T21:36:15.092Z,78.35
2023-02-25T21:38:44.292Z,78.72
2023-02-25T21:41:15.965Z,78.93
2023-02-25T21:43:46.049Z,79.09
2023-02-25T21:46:16.871Z,78.75
2023-02-25T21:48:51.060Z,79.00
2023-02-25T21:51:24.053Z,79.74
2023-02-25T21:53:59.455Z,79.30
2023-02-25T21:56:31.380Z,79.15
2023-02-25T21:59:03.756Z,79.92
2023-02-25T22:01:37.232Z,80.10
2023-02-25T22:04:08.295Z,80.17
2023-02-25T22:06:39.115Z,80.01
2023-02-25T22:09:09.675Z,79.71
2023-02-25T22:11:39.521Z,80.14
2023-02-25T22:14:10.605Z,79.47
2023-02-25T22:16:41.684Z,79.05
2023-02-25T22:19:12.701Z,79.42
2023-02-25T22:21:42.708Z,79.39
2023-02-25T22:24:12.951Z,79.85
2023-02-25T22:26:42.155Z,79.90
2023-02-25T22:29:12.355Z,79.81
2023-02-25T22:31:42.712Z,80.26
2023-02-25T22:34:12.989Z,80.29
2023-02-25T22:36:42.309Z,80.35
2023-02-25T22:39:12.324Z,80.84
2023-02-25T22:41:43.777Z,80.58
2023-02-25T22:44:14.240Z,80.88
2023-02-25T22:46:43.443Z,81.08
2023-02-25T22:49:13.364Z,81.27
2023-02-25T22:51:45.391Z,80.99
2023-02-25T22:54:20.165Z,80.56
2023-02-25T22:56:50.164Z,80.51
2023-02-25T22:59:20.181Z,80.46
2023-02-25T23:01:50.349Z,80.74
2023-02-25T23:04:19.822Z,81.03
2023-02-25T23:06:51.101Z,80.81
2023-02-25T23:09:20.243Z,80.50
2023-02-25T23:11:51.205Z,80.90
2023-02-25T23:14:20.733Z,80.93
2023-02-25T23:16:51.989Z,80.92
2023-02-25T23:19:22.892Z,81.31
2023-02-25T23:21:52.963Z,81.88
2023-02-25T23:24:23.247Z,81.57
2023-02-25T23:26:54.916Z,81.38
2023-02-25T23:29:25.107Z,81.27
2023-02-25T23:31:55.176Z,81.29
2023-02-25T23:34:25.550Z,81.23
2023-02-25T23:36:57.432Z,81.22
2023-02-25T23:39:27.429Z,81.58
2023-02-25T23:41:57.341Z,81.26
2023-02-25T23:44:27.513Z,81.46
2023-02-25T23:46:57.684Z,81.53
2023-02-25T23:49:28.888Z,82.59
2023-02-25T23:51:58.763Z,82.20
2023-02-25T23:54:28.563Z,82.55
2023-02-25T23:56:57.770Z,82.55
2023-02-25T23:59:27.592Z,82.16
